Time;durP1;ratioP1;P1;durP2;ratioP2;P2;SDS_P1;SDS_P2;PMS_P1;PMS_P2;Temp;Humidity;BMP_temperature;BMP_pressure;BME280_temperature;BME280_humidity;BME280_pressure;Samples;Min_cycle;Max_cycle;Signal;HPM_P1;HPM_P2
2022/10/07 00:01:48;;;;;;;;;;;;;;;12.96;55.27;101758.47;4918445;28;8738;-80
2022/10/07 00:04:14;;;;;;;;;;;;;;;12.95;55.11;101756.69;4941077;28;8489;-81
2022/10/07 00:06:40;;;;;;;;;;;;;;;12.94;55.15;101761.72;4941271;28;7126;-80
2022/10/07 00:09:05;;;;;;;;;;;;;;;12.91;55.13;101754.75;4942943;28;8395;-81
2022/10/07 00:11:31;;;;;;;;;;;;;;;12.87;55.77;101758.81;4942179;28;7181;-80
2022/10/07 00:14:03;;;;;;;;;;;;;;;12.85;55.43;101755.25;4939454;28;6954;-81
2022/10/07 00:16:34;;;;;;;;;;;;;;;12.85;55.53;101749.22;4939723;28;8471;-81
2022/10/07 00:19:04;;;;;;;;;;;;;;;12.86;56.05;101745.84;4929207;28;8792;-81
2022/10/07 00:21:33;;;;;;;;;;;;;;;12.86;55.77;101749.31;4921542;28;7169;-80
2022/10/07 00:23:59;;;;;;;;;;;;;;;12.87;55.58;101739.91;4925695;28;8783;-81
2022/10/07 00:26:28;;;;;;;;;;;;;;;12.88;55.64;101744.25;4939532;28;7163;-80
2022/10/07 00:28:55;;;;;;;;;;;;;;;12.90;56.36;101745.25;4940330;28;6990;-80
2022/10/07 00:31:29;;;;;;;;;;;;;;;12.89;56.07;101741.78;4928889;28;8424;-81
2022/10/07 00:33:56;;;;;;;;;;;;;;;12.89;56.06;101739.19;4942649;28;6816;-81
2022/10/07 00:36:25;;;;;;;;;;;;;;;12.90;56.01;101740.97;4939403;28;8564;-81
2022/10/07 00:38:55;;;;;;;;;;;;;;;12.88;55.99;101729.72;4943359;28;7190;-80
2022/10/07 00:41:26;;;;;;;;;;;;;;;12.89;55.57;101733.16;4919610;28;8815;-82
2022/10/07 00:43:53;;;;;;;;;;;;;;;12.88;56.00;101732.28;4936367;28;8459;-80
2022/10/07 00:46:38;;;;;;;;;;;;;;;12.88;56.31;101729.72;4940743;28;6975;-81
2022/10/07 00:49:12;;;;;;;;;;;;;;;12.86;56.38;101723.59;4937164;28;7293;-80
2022/10/07 00:51:41;;;;;;;;;;;;;;;12.87;56.00;101727.94;4937469;28;7010;-81
2022/10/07 00:54:14;;;;;;;;;;;;;;;12.88;55.62;101729.72;4920253;28;6997;-80
2022/10/07 00:56:42;;;;;;;;;;;;;;;12.87;56.33;101709.91;4931093;28;7659;-81
2022/10/07 00:59:10;;;;;;;;;;;;;;;12.91;55.55;101713.56;4922632;28;8823;-81
2022/10/07 01:01:36;;;;;;;;;;;;;;;12.90;56.50;101712.66;4935543;28;7000;-81
2022/10/07 01:04:03;;;;;;;;;;;;;;;12.91;56.28;101709.28;4938518;28;7005;-81
2022/10/07 01:06:29;;;;;;;;;;;;;;;12.92;55.51;101705.91;4939399;28;7180;-82
2022/10/07 01:08:56;;;;;;;;;;;;;;;12.91;55.83;101701.56;4938883;28;8575;-81
2022/10/07 01:11:56;;;;;;;;;;;;;;;12.89;56.19;101698.03;4938709;28;7251;-81
2022/10/07 01:15:10;;;;;;;;;;;;;;;12.88;56.17;101698.81;4940793;28;7261;-82
2022/10/07 01:17:51;;;;;;;;;;;;;;;12.86;56.30;101692.72;4943452;28;7212;-82
2022/10/07 01:20:45;;;;;;;;;;;;;;;12.86;56.50;101692.72;4941196;28;9221;-81
2022/10/07 01:23:27;;;;;;;;;;;;;;;12.88;56.66;101701.41;4923143;28;7302;-81
2022/10/07 01:26:14;;;;;;;;;;;;;;;12.86;55.84;101690.13;4943712;28;7423;-81
2022/10/07 01:28:52;;;;;;;;;;;;;;;12.88;56.78;101688.53;4940923;28;6964;-81
2022/10/07 01:31:26;;;;;;;;;;;;;;;12.88;56.68;101683.38;4918037;28;7006;-82
2022/10/07 01:33:54;;;;;;;;;;;;;;;12.93;56.58;101691.38;4913968;28;7801;-81
2022/10/07 01:36:23;;;;;;;;;;;;;;;12.94;56.79;101680.28;4924523;28;7214;-81
2022/10/07 01:39:01;;;;;;;;;;;;;;;12.94;56.73;101676.81;4916597;29;7392;-81
2022/10/07 01:41:30;;;;;;;;;;;;;;;12.91;56.43;101668.13;4922355;28;8740;-81
2022/10/07 01:43:59;;;;;;;;;;;;;;;12.89;56.44;101667.16;4924154;28;8419;-81
2022/10/07 01:46:27;;;;;;;;;;;;;;;12.86;55.53;101658.34;4939185;28;6977;-81
2022/10/07 01:48:53;;;;;;;;;;;;;;;12.84;56.69;101658.25;4927279;28;8543;-80
2022/10/07 01:51:30;;;;;;;;;;;;;;;12.83;56.19;101653.91;4925383;28;6944;-82
2022/10/07 01:54:16;;;;;;;;;;;;;;;12.85;56.11;101652.34;4922082;28;8592;-81
2022/10/07 01:57:26;;;;;;;;;;;;;;;12.84;56.10;101649.66;4935390;28;7014;-81
2022/10/07 02:00:11;;;;;;;;;;;;;;;12.81;56.02;101649.50;4938921;28;8543;-81
2022/10/07 02:03:30;;;;;;;;;;;;;;;12.77;55.91;101643.28;4927443;28;13102;-81
2022/10/07 02:06:26;;;;;;;;;;;;;;;12.72;56.50;101642.09;4918712;29;7280;-80
2022/10/07 02:08:55;;;;;;;;;;;;;;;12.64;56.33;101637.38;4940442;28;7019;-81
2022/10/07 02:11:32;;;;;;;;;;;;;;;12.61;55.89;101632.06;4935292;28;8680;-80
2022/10/07 02:14:13;;;;;;;;;;;;;;;12.56;56.00;101628.34;4905397;28;8463;-80
2022/10/07 02:16:46;;;;;;;;;;;;;;;12.52;56.17;101620.38;4936681;28;8493;-80
2022/10/07 02:19:17;;;;;;;;;;;;;;;12.48;56.45;101616.72;4935671;28;8764;-81
2022/10/07 02:21:49;;;;;;;;;;;;;;;12.47;56.60;101615.81;4933964;28;8432;-80
2022/10/07 02:24:20;;;;;;;;;;;;;;;12.44;56.40;101610.50;4921957;28;8750;-80
2022/10/07 02:26:51;;;;;;;;;;;;;;;12.42;56.30;101609.53;4939709;28;6988;-81
2022/10/07 02:29:21;;;;;;;;;;;;;;;12.40;56.84;101600.81;4937979;28;7114;-80
2022/10/07 02:31:51;;;;;;;;;;;;;;;12.41;56.92;101605.19;4936341;28;8401;-81
2022/10/07 02:34:22;;;;;;;;;;;;;;;12.40;56.63;101605.97;4940165;28;6974;-80
2022/10/07 02:37:06;;;;;;;;;;;;;;;12.41;57.02;101601.72;4942802;28;8409;-81
2022/10/07 02:39:33;;;;;;;;;;;;;;;12.41;57.50;101597.47;4924996;28;8466;-82
2022/10/07 02:42:22;;;;;;;;;;;;;;;12.41;57.53;101594.00;4945672;28;7279;-82
2022/10/07 02:45:23;;;;;;;;;;;;;;;12.39;57.19;101583.63;4946491;28;7331;-82
2022/10/07 02:48:04;;;;;;;;;;;;;;;12.39;57.26;101585.31;4948212;28;7155;-82
2022/10/07 02:50:42;;;;;;;;;;;;;;;12.36;56.92;101579.22;4946154;28;7216;-82
2022/10/07 02:53:12;;;;;;;;;;;;;;;12.35;57.33;101582.53;4938295;28;8848;-83
2022/10/07 02:55:40;;;;;;;;;;;;;;;12.34;57.36;101572.19;4947773;28;7417;-82
2022/10/07 02:58:09;;;;;;;;;;;;;;;12.33;56.77;101578.13;4944868;28;8764;-81
2022/10/07 03:00:42;;;;;;;;;;;;;;;12.34;56.42;101575.63;4949802;28;7199;-82
2022/10/07 03:03:08;;;;;;;;;;;;;;;12.33;56.79;101573.00;4938688;28;8388;-82
2022/10/07 03:05:34;;;;;;;;;;;;;;;12.32;57.35;101569.53;4949498;28;8738;-81
2022/10/07 03:08:10;;;;;;;;;;;;;;;12.33;56.95;101571.28;4946132;28;6982;-81
2022/10/07 03:10:36;;;;;;;;;;;;;;;12.36;56.72;101573.16;4940215;28;6951;-82
2022/10/07 03:13:03;;;;;;;;;;;;;;;12.36;56.65;101563.78;4926633;28;8462;-83
2022/10/07 03:15:31;;;;;;;;;;;;;;;12.36;57.07;101563.78;4937141;28;8437;-81
2022/10/07 03:17:56;;;;;;;;;;;;;;;12.35;57.03;101564.53;4949922;28;6982;-82
2022/10/07 03:20:22;;;;;;;;;;;;;;;12.33;56.61;101558.44;4935231;28;8503;-82
2022/10/07 03:22:48;;;;;;;;;;;;;;;12.33;56.81;101560.13;4933577;28;8398;-82
2022/10/07 03:25:14;;;;;;;;;;;;;;;12.34;57.07;101555.06;4949288;28;7197;-81
2022/10/07 03:27:41;;;;;;;;;;;;;;;12.38;56.84;101555.28;4939129;28;7042;-83
2022/10/07 03:30:09;;;;;;;;;;;;;;;12.38;57.38;101551.00;4936288;28;7367;-83
2022/10/07 03:32:36;;;;;;;;;;;;;;;12.41;57.04;101560.56;4947581;28;11452;-83
2022/10/07 03:35:02;;;;;;;;;;;;;;;12.42;56.67;101554.63;4929526;28;6982;-82
2022/10/07 03:37:29;;;;;;;;;;;;;;;12.40;56.71;101549.41;4922961;28;8330;-83
2022/10/07 03:39:55;;;;;;;;;;;;;;;12.39;57.19;101557.91;4937163;28;8420;-81
2022/10/07 03:42:20;;;;;;;;;;;;;;;12.37;56.73;101554.38;4942433;28;8384;-81
2022/10/07 03:44:48;;;;;;;;;;;;;;;12.35;56.73;101558.53;4942840;28;9021;-81
2022/10/07 03:47:16;;;;;;;;;;;;;;;12.31;56.44;101554.91;4917341;28;8453;-82
2022/10/07 03:49:43;;;;;;;;;;;;;;;12.30;56.12;101553.13;4944767;28;7191;-82
2022/10/07 03:52:09;;;;;;;;;;;;;;;12.26;56.05;101551.16;4944521;28;8435;-81
2022/10/07 03:54:34;;;;;;;;;;;;;;;12.22;56.55;101549.19;4927078;28;8540;-82
2022/10/07 03:57:00;;;;;;;;;;;;;;;12.19;56.39;101547.34;4949576;28;8409;-82
2022/10/07 03:59:26;;;;;;;;;;;;;;;12.16;56.93;101552.31;4947829;28;6967;-81
2022/10/07 04:01:52;;;;;;;;;;;;;;;12.16;56.63;101556.53;4946949;28;7249;-83
2022/10/07 04:04:19;;;;;;;;;;;;;;;12.13;56.79;101546.97;4943792;28;6914;-82
2022/10/07 04:06:45;;;;;;;;;;;;;;;12.12;56.50;101540.06;4940038;28;8421;-82
2022/10/07 04:09:12;;;;;;;;;;;;;;;12.11;56.94;101539.97;4938662;28;8663;-79
2022/10/07 04:11:40;;;;;;;;;;;;;;;12.10;56.94;101538.19;4937973;28;7304;-79
2022/10/07 04:14:06;;;;;;;;;;;;;;;12.07;56.91;101534.66;4941411;28;6820;-82
2022/10/07 04:16:32;;;;;;;;;;;;;;;12.08;56.97;101531.28;4943602;28;6827;-81
2022/10/07 04:18:58;;;;;;;;;;;;;;;12.10;56.97;101527.91;4932726;28;8419;-83
2022/10/07 04:21:24;;;;;;;;;;;;;;;12.10;57.01;101525.34;4941878;28;8381;-81
2022/10/07 04:23:50;;;;;;;;;;;;;;;12.10;56.74;101521.06;4930961;28;8360;-81
2022/10/07 04:26:16;;;;;;;;;;;;;;;12.08;56.79;101521.00;4944324;28;7326;-81
2022/10/07 04:28:42;;;;;;;;;;;;;;;12.10;56.99;101523.66;4922429;28;7269;-82
2022/10/07 04:31:09;;;;;;;;;;;;;;;12.08;56.98;101514.97;4918368;28;8343;-81
2022/10/07 04:33:40;;;;;;;;;;;;;;;12.08;56.73;101510.72;4916986;28;8874;-81
2022/10/07 04:36:08;;;;;;;;;;;;;;;12.07;57.06;101511.53;4940888;28;8679;-81
2022/10/07 04:38:33;;;;;;;;;;;;;;;12.09;57.17;101514.16;4932267;28;6973;-81
2022/10/07 04:41:05;;;;;;;;;;;;;;;12.08;57.37;101508.16;4927208;28;8786;-81
2022/10/07 04:43:34;;;;;;;;;;;;;;;12.11;57.45;101514.28;4943021;28;7158;-83
2022/10/07 04:46:07;;;;;;;;;;;;;;;12.11;57.04;101512.56;4943570;28;6964;-81
2022/10/07 04:48:33;;;;;;;;;;;;;;;12.08;57.59;101500.44;4933039;28;8547;-81
2022/10/07 04:51:08;;;;;;;;;;;;;;;12.10;56.85;101507.38;4943784;28;7296;-81
2022/10/07 04:53:36;;;;;;;;;;;;;;;12.10;57.26;101507.38;4941671;28;7175;-81
2022/10/07 04:56:03;;;;;;;;;;;;;;;12.10;57.18;101508.22;4926127;28;8453;-81
2022/10/07 04:58:31;;;;;;;;;;;;;;;12.08;57.55;101500.44;4932025;28;6940;-82
2022/10/07 05:00:59;;;;;;;;;;;;;;;12.10;57.23;101494.50;4945219;28;7259;-80
2022/10/07 05:03:28;;;;;;;;;;;;;;;12.11;57.15;101502.28;4944599;28;7184;-81
2022/10/07 05:06:01;;;;;;;;;;;;;;;12.10;57.13;101492.81;4946667;28;6965;-81
2022/10/07 05:08:26;;;;;;;;;;;;;;;12.10;57.29;101491.94;4947216;28;7218;-81
2022/10/07 05:10:58;;;;;;;;;;;;;;;12.07;56.78;101485.84;4946306;28;7005;-81
2022/10/07 05:13:25;;;;;;;;;;;;;;;12.06;57.16;101481.47;4945237;28;8395;-80
2022/10/07 05:15:55;;;;;;;;;;;;;;;12.03;57.38;101478.72;4930170;28;8653;-81
2022/10/07 05:18:23;;;;;;;;;;;;;;;12.05;57.60;101484.84;4932891;28;8480;-81
2022/10/07 05:20:49;;;;;;;;;;;;;;;12.06;57.30;101485.72;4926810;28;8443;-81
2022/10/07 05:23:18;;;;;;;;;;;;;;;12.05;57.43;101482.25;4947090;28;8448;-81
2022/10/07 05:25:45;;;;;;;;;;;;;;;12.06;57.11;101484.03;4938051;28;6985;-81
2022/10/07 05:28:14;;;;;;;;;;;;;;;12.07;57.52;101488.41;4932178;28;8626;-81
2022/10/07 05:30:40;;;;;;;;;;;;;;;12.08;57.90;101484.13;4943967;28;7223;-81
2022/10/07 05:33:08;;;;;;;;;;;;;;;12.12;57.49;101486.09;4949211;28;7188;-80
2022/10/07 05:35:34;;;;;;;;;;;;;;;12.13;57.50;101479.25;4930781;28;8832;-80
2022/10/07 05:38:00;;;;;;;;;;;;;;;12.15;57.59;101480.22;4932736;28;8522;-82
2022/10/07 05:40:26;;;;;;;;;;;;;;;12.19;57.43;101479.63;4946613;28;8446;-81
2022/10/07 05:42:51;;;;;;;;;;;;;;;12.22;58.15;101469.53;4948077;28;7162;-81
2022/10/07 05:45:18;;;;;;;;;;;;;;;12.28;57.57;101481.84;4942405;28;6969;-81
2022/10/07 05:47:46;;;;;;;;;;;;;;;12.31;57.54;101482.91;4946014;28;8476;-81
2022/10/07 05:50:12;;;;;;;;;;;;;;;12.34;57.91;101483.09;4946730;28;8824;-81
2022/10/07 05:52:38;;;;;;;;;;;;;;;12.33;57.26;101473.59;4932859;28;7278;-81
2022/10/07 05:55:05;;;;;;;;;;;;;;;12.34;57.66;101477.06;4946486;28;8394;-81
2022/10/07 05:57:31;;;;;;;;;;;;;;;12.34;57.18;101472.81;4944394;28;6977;-81
2022/10/07 05:59:57;;;;;;;;;;;;;;;12.34;57.61;101467.66;4945562;28;8427;-80
2022/10/07 06:02:24;;;;;;;;;;;;;;;12.35;57.61;101458.28;4948729;28;7414;-80
2022/10/07 06:04:49;;;;;;;;;;;;;;;12.39;57.98;101455.06;4943606;28;6848;-81
2022/10/07 06:07:16;;;;;;;;;;;;;;;12.47;57.89;101465.81;4937138;28;6780;-81
2022/10/07 06:15:12;;;;;;;;;;;;;;;12.67;58.09;101461.78;4942725;28;6812;-80
2022/10/07 06:17:45;;;;;;;;;;;;;;;12.75;58.08;101465.69;4944737;28;7066;-81
2022/10/07 06:20:13;;;;;;;;;;;;;;;12.84;57.47;101459.28;4937561;28;8696;-81
2022/10/07 06:22:39;;;;;;;;;;;;;;;12.94;58.33;101460.66;4943199;28;6817;-80
2022/10/07 06:25:06;;;;;;;;;;;;;;;13.05;57.75;101462.16;4942472;28;7135;-80
2022/10/07 06:27:33;;;;;;;;;;;;;;;13.14;57.88;101464.34;4939058;28;7215;-82
2022/10/07 06:29:59;;;;;;;;;;;;;;;13.22;58.07;101470.78;4930926;29;6966;-79
2022/10/07 06:32:25;;;;;;;;;;;;;;;13.29;57.63;101464.28;4943270;28;7188;-80
2022/10/07 06:34:50;;;;;;;;;;;;;;;13.36;57.00;101476.69;4942444;28;7657;-80
2022/10/07 06:37:16;;;;;;;;;;;;;;;13.45;57.24;101474.66;4941892;28;8005;-80
2022/10/07 06:39:42;;;;;;;;;;;;;;;13.54;57.21;101475.94;4943541;28;8426;-80
2022/10/07 06:42:08;;;;;;;;;;;;;;;13.62;56.83;101477.25;4943176;28;6776;-80
2022/10/07 06:44:33;;;;;;;;;;;;;;;13.67;57.37;101465.47;4941660;28;7220;-80
2022/10/07 06:46:59;;;;;;;;;;;;;;;13.75;56.69;101471.91;4942466;28;6790;-81
2022/10/07 06:49:25;;;;;;;;;;;;;;;13.82;56.53;101472.25;4940448;28;6971;-80
2022/10/07 06:51:50;;;;;;;;;;;;;;;13.92;56.60;101473.59;4937678;28;6956;-80
2022/10/07 06:54:16;;;;;;;;;;;;;;;14.00;56.23;101473.19;4927580;28;8369;-79
2022/10/07 06:56:42;;;;;;;;;;;;;;;14.10;56.41;101477.09;4925293;29;8022;-81
2022/10/07 06:59:08;;;;;;;;;;;;;;;14.20;57.10;101475.00;4942757;28;6954;-81
2022/10/07 07:01:34;;;;;;;;;;;;;;;14.29;56.87;101471.19;4927742;28;8379;-79
2022/10/07 07:04:00;;;;;;;;;;;;;;;14.38;56.11;101475.91;4920190;29;6970;-78
2022/10/07 07:06:25;;;;;;;;;;;;;;;14.47;56.66;101472.03;4937889;28;8486;-79
2022/10/07 07:08:54;;;;;;;;;;;;;;;14.57;55.64;101463.94;4936485;28;7226;-79
2022/10/07 07:11:35;;;;;;;;;;;;;;;14.67;56.52;101470.41;4923031;28;8513;-79
2022/10/07 07:14:04;;;;;;;;;;;;;;;14.75;55.59;101469.09;4941229;28;7235;-80
2022/10/07 07:16:31;;;;;;;;;;;;;;;14.86;56.03;101462.75;4908491;28;8368;-80
2022/10/07 07:19:01;;;;;;;;;;;;;;;14.95;55.26;101466.59;4942316;28;7024;-81
2022/10/07 07:21:27;;;;;;;;;;;;;;;15.05;55.21;101471.38;4928655;28;7589;-80
2022/10/07 07:23:54;;;;;;;;;;;;;;;15.14;55.28;101465.75;4948571;28;6818;-82
2022/10/07 07:26:20;;;;;;;;;;;;;;;15.24;54.79;101467.06;4944706;28;7168;-80
2022/10/07 07:29:01;;;;;;;;;;;;;;;15.33;54.97;101467.47;4934369;28;8420;-79
2022/10/07 07:31:32;;;;;;;;;;;;;;;15.43;55.33;101457.56;4917723;28;7078;-79
2022/10/07 07:34:02;;;;;;;;;;;;;;;15.52;54.96;101463.16;4945406;28;7039;-79
2022/10/07 07:36:30;;;;;;;;;;;;;;;15.61;54.37;101460.09;4947123;28;6976;-80
2022/10/07 07:39:04;;;;;;;;;;;;;;;15.69;54.25;101457.03;4944787;28;7029;-79
2022/10/07 07:41:36;;;;;;;;;;;;;;;15.81;54.45;101458.38;4945625;28;8541;-80
2022/10/07 07:44:05;;;;;;;;;;;;;;;15.92;54.07;101456.31;4945887;28;8639;-79
2022/10/07 07:46:40;;;;;;;;;;;;;;;16.02;54.36;101454.97;4927068;28;8755;-80
2022/10/07 07:49:09;;;;;;;;;;;;;;;16.09;53.92;101447.56;4915636;28;8640;-80
2022/10/07 07:51:36;;;;;;;;;;;;;;;16.18;53.71;101452.22;4943320;28;7075;-80
2022/10/07 07:54:02;;;;;;;;;;;;;;;16.28;53.58;101450.91;4933891;28;8420;-80
2022/10/07 07:56:30;;;;;;;;;;;;;;;16.36;53.85;101446.91;4944434;28;8403;-80
2022/10/07 07:58:56;;;;;;;;;;;;;;;16.45;53.48;101446.41;4943366;28;8493;-80
2022/10/07 08:01:22;;;;;;;;;;;;;;;16.55;53.50;101439.91;4942630;28;7163;-81
2022/10/07 08:03:49;;;;;;;;;;;;;;;16.66;53.20;101450.69;4943020;28;7091;-80
2022/10/07 08:06:19;;;;;;;;;;;;;;;16.76;53.33;101444.19;4928947;28;8423;-80
2022/10/07 08:08:46;;;;;;;;;;;;;;;16.88;53.07;101446.34;4944101;28;7009;-80
2022/10/07 08:11:18;;;;;;;;;;;;;;;16.97;53.27;101441.53;4936577;28;7320;-79
2022/10/07 08:13:45;;;;;;;;;;;;;;;17.05;52.68;101442.75;4940246;28;8869;-80
2022/10/07 08:16:15;;;;;;;;;;;;;;;17.14;52.76;101444.81;4940667;28;7018;-81
2022/10/07 08:18:45;;;;;;;;;;;;;;;17.22;51.85;101439.91;4940300;28;7858;-80
2022/10/07 08:21:11;;;;;;;;;;;;;;;17.29;52.36;101439.31;4941899;28;8509;-83
2022/10/07 08:23:38;;;;;;;;;;;;;;;17.42;52.14;101444.94;4926457;28;7611;-81
2022/10/07 08:26:06;;;;;;;;;;;;;;;17.48;51.80;101440.84;4925246;28;8430;-82
2022/10/07 08:28:33;;;;;;;;;;;;;;;17.57;51.98;101440.28;4941622;28;7266;-80
2022/10/07 08:31:15;;;;;;;;;;;;;;;17.66;51.23;101431.97;4929947;28;8420;-82
2022/10/07 08:33:44;;;;;;;;;;;;;;;17.74;51.30;101432.25;4926024;28;8498;-81
2022/10/07 08:36:17;;;;;;;;;;;;;;;17.85;51.44;101427.44;4941078;28;8839;-81
2022/10/07 08:38:45;;;;;;;;;;;;;;;17.94;51.14;101424.25;4941796;28;8431;-81
2022/10/07 08:41:41;;;;;;;;;;;;;;;18.01;51.00;101421.94;4941629;28;8470;-81
2022/10/07 08:44:12;;;;;;;;;;;;;;;18.10;50.56;101415.31;4939934;28;8427;-80
2022/10/07 08:46:57;;;;;;;;;;;;;;;18.20;50.60;101416.50;4943666;28;6976;-80
2022/10/07 08:49:54;;;;;;;;;;;;;;;18.32;50.58;101427.28;4926620;28;8497;-81
2022/10/07 08:52:45;;;;;;;;;;;;;;;18.40;50.38;101422.34;4942324;28;7228;-81
2022/10/07 08:55:35;;;;;;;;;;;;;;;18.49;49.92;101411.38;4941629;28;6999;-81
2022/10/07 08:58:03;;;;;;;;;;;;;;;18.58;49.97;101416.84;4932229;28;7172;-80
2022/10/07 09:01:06;;;;;;;;;;;;;;;18.68;49.82;101412.81;4939503;28;7362;-82
2022/10/07 09:04:05;;;;;;;;;;;;;;;18.76;49.13;101402.69;4908838;28;8730;-82
2022/10/07 09:06:44;;;;;;;;;;;;;;;18.86;49.42;101396.94;4937578;28;8448;-82
2022/10/07 09:09:26;;;;;;;;;;;;;;;18.96;49.51;101398.97;4939699;28;8905;-81
2022/10/07 09:11:57;;;;;;;;;;;;;;;19.06;48.95;101391.47;4939409;28;7009;-81
2022/10/07 09:14:41;;;;;;;;;;;;;;;19.13;48.45;101389.06;4942212;28;8814;-82
2022/10/07 09:17:41;;;;;;;;;;;;;;;19.19;48.32;101384.91;4941288;28;7195;-80
2022/10/07 09:20:19;;;;;;;;;;;;;;;19.26;48.64;101385.13;4925104;28;7324;-80
2022/10/07 09:22:56;;;;;;;;;;;;;;;19.34;48.04;101384.44;4922700;28;7122;-82
2022/10/07 09:25:30;;;;;;;;;;;;;;;19.39;48.16;101375.94;4942427;28;7270;-80
2022/10/07 09:27:56;;;;;;;;;;;;;;;19.46;48.00;101371.78;4934911;28;7423;-81
2022/10/07 09:30:26;;;;;;;;;;;;;;;19.52;47.59;101377.16;4944883;28;7560;-82
2022/10/07 09:32:54;;;;;;;;;;;;;;;19.59;47.81;101372.09;4942814;28;6998;-81
2022/10/07 09:35:24;;;;;;;;;;;;;;;19.66;47.39;101372.31;4946542;28;6952;-82
2022/10/07 09:38:09;;;;;;;;;;;;;;;19.75;47.12;101362.97;4927704;28;7231;-80
2022/10/07 09:43:34;;;;;;;;;;;;;;;19.92;46.63;101351.25;4942649;28;6808;-79
2022/10/07 09:46:00;;;;;;;;;;;;;;;20.02;46.71;101357.63;4942986;28;7210;-80
2022/10/07 09:48:32;;;;;;;;;;;;;;;20.05;46.54;101349.88;4925149;28;8429;-80
2022/10/07 09:51:15;;;;;;;;;;;;;;;20.12;45.88;101349.19;4946144;28;7223;-79
2022/10/07 09:54:02;;;;;;;;;;;;;;;20.20;46.37;101348.50;4946744;28;7035;-78
2022/10/07 09:56:53;;;;;;;;;;;;;;;20.28;46.38;101343.47;4945662;28;7037;-81
2022/10/07 09:59:24;;;;;;;;;;;;;;;20.40;46.29;101342.03;4929991;28;6997;-80
2022/10/07 10:02:02;;;;;;;;;;;;;;;20.57;45.90;101343.22;4935481;28;6952;-79
2022/10/07 10:04:35;;;;;;;;;;;;;;;20.84;45.99;101334.28;4949468;28;6972;-79
2022/10/07 10:07:33;;;;;;;;;;;;;;;21.75;45.63;101324.66;4932940;28;6995;-81
2022/10/07 10:10:21;;;;;;;;;;;;;;;23.22;43.84;101317.91;4929707;28;8608;-80
2022/10/07 10:12:53;;;;;;;;;;;;;;;24.58;41.78;101321.56;4934132;28;6980;-79
2022/10/07 10:15:42;;;;;;;;;;;;;;;25.76;39.64;101303.44;4935819;28;7308;-81
2022/10/07 10:18:38;;;;;;;;;;;;;;;26.87;37.94;101299.59;4936989;29;6970;-82
2022/10/07 10:21:34;;;;;;;;;;;;;;;27.61;36.12;101294.75;4943099;28;8838;-82
2022/10/07 10:27:28;;;;;;;;;;;;;;;28.97;33.89;101280.91;4934681;28;6816;-82
2022/10/07 10:30:05;;;;;;;;;;;;;;;29.37;33.83;101282.06;4930798;29;7268;-81
2022/10/07 10:32:47;;;;;;;;;;;;;;;29.66;32.32;101280.69;4944870;28;7378;-80
2022/10/07 10:35:26;;;;;;;;;;;;;;;29.90;32.12;101278.50;4942319;28;8774;-82
2022/10/07 10:38:03;;;;;;;;;;;;;;;30.11;31.60;101279.88;4940913;28;8513;-81
2022/10/07 10:40:35;;;;;;;;;;;;;;;30.35;31.32;101272.34;4944807;28;7231;-81
2022/10/07 10:43:49;;;;;;;;;;;;;;;30.71;31.43;101274.22;4940423;28;7275;-83
2022/10/07 10:47:06;;;;;;;;;;;;;;;31.18;30.27;101258.13;4939464;28;8837;-82
2022/10/07 10:49:57;;;;;;;;;;;;;;;31.52;29.87;101256.44;4916857;28;8511;-81
2022/10/07 10:52:50;;;;;;;;;;;;;;;31.61;29.02;101258.84;4936468;28;9020;-81
2022/10/07 10:55:41;;;;;;;;;;;;;;;31.67;29.22;101248.06;4943648;28;7251;-80
2022/10/07 10:59:02;;;;;;;;;;;;;;;31.72;28.14;101247.94;4941149;28;6982;-81
2022/10/07 11:01:36;;;;;;;;;;;;;;;31.83;27.03;101242.38;4926022;28;8542;-82
2022/10/07 11:04:04;;;;;;;;;;;;;;;31.95;26.54;101230.56;4928535;28;7195;-82
2022/10/07 11:06:36;;;;;;;;;;;;;;;32.13;26.62;101234.44;4944089;28;7211;-81
2022/10/07 11:09:07;;;;;;;;;;;;;;;32.33;25.91;101230.34;4943592;28;7443;-83
2022/10/07 11:11:35;;;;;;;;;;;;;;;32.51;25.64;101229.78;4938053;28;8441;-81
2022/10/07 11:14:13;;;;;;;;;;;;;;;32.50;25.73;101222.75;4944027;28;8708;-83
2022/10/07 11:16:41;;;;;;;;;;;;;;;32.60;25.51;101207.44;4941016;28;7457;-81
2022/10/07 11:19:29;;;;;;;;;;;;;;;32.62;24.96;101210.91;4928899;28;8743;-82
2022/10/07 11:21:59;;;;;;;;;;;;;;;32.68;25.01;101196.56;4929028;28;7028;-81
2022/10/07 11:24:40;;;;;;;;;;;;;;;32.89;25.13;101191.47;4942412;28;7195;-81
2022/10/07 11:27:26;;;;;;;;;;;;;;;32.97;24.91;101186.78;4924633;28;6866;-82
2022/10/07 11:30:20;;;;;;;;;;;;;;;32.94;24.43;101190.41;4944886;28;7049;-82
2022/10/07 11:33:03;;;;;;;;;;;;;;;32.81;24.12;101184.63;4943074;28;11538;-82
2022/10/07 11:35:40;;;;;;;;;;;;;;;32.65;24.50;101178.94;4927516;28;8508;-81
2022/10/07 11:38:09;;;;;;;;;;;;;;;32.64;24.90;101176.34;4942288;28;6981;-80
2022/10/07 11:40:54;;;;;;;;;;;;;;;32.74;24.72;101164.53;4942771;28;7367;-83
2022/10/07 11:44:08;;;;;;;;;;;;;;;32.82;24.27;101162.47;4936866;28;6816;-79
2022/10/07 11:46:40;;;;;;;;;;;;;;;32.90;23.71;101148.06;4944529;28;7253;-77
2022/10/07 11:49:23;;;;;;;;;;;;;;;32.88;23.85;101142.81;4943979;28;7003;-80
2022/10/07 11:52:04;;;;;;;;;;;;;;;32.82;23.96;101143.88;4944638;28;8430;-78
2022/10/07 11:54:58;;;;;;;;;;;;;;;32.95;24.18;101138.22;4945780;28;6981;-80
2022/10/07 11:57:30;;;;;;;;;;;;;;;33.14;23.89;101134.91;4936996;28;8677;-82
2022/10/07 12:00:28;;;;;;;;;;;;;;;33.17;24.09;101121.50;4959005;28;7689;-80
2022/10/07 12:02:55;;;;;;;;;;;;;;;33.20;24.02;101126.72;4933677;28;12745;-82
2022/10/07 12:05:33;;;;;;;;;;;;;;;33.02;23.80;101121.13;4952531;28;6952;-82
2022/10/07 12:08:28;;;;;;;;;;;;;;;32.87;23.76;101125.16;4950451;28;8743;-80
2022/10/07 12:11:18;;;;;;;;;;;;;;;32.41;23.71;101112.53;4946088;28;7271;-78
2022/10/07 12:13:50;;;;;;;;;;;;;;;31.38;24.60;101119.09;4955025;28;8827;-82
2022/10/07 12:16:30;;;;;;;;;;;;;;;30.15;25.16;101115.03;4951322;28;8395;-82
2022/10/07 12:19:05;;;;;;;;;;;;;;;28.95;27.14;101111.22;4955777;28;7032;-81
2022/10/07 12:21:59;;;;;;;;;;;;;;;27.91;27.72;101112.72;4956441;28;7016;-82
2022/10/07 12:24:31;;;;;;;;;;;;;;;27.03;28.51;101112.81;4956860;28;9121;-80
2022/10/07 12:27:18;;;;;;;;;;;;;;;26.32;29.22;101103.69;4940033;28;6980;-82
2022/10/07 12:30:01;;;;;;;;;;;;;;;25.75;30.06;101092.59;4937801;28;8488;-81
2022/10/07 12:32:55;;;;;;;;;;;;;;;25.21;30.13;101096.22;4955415;28;8429;-79
2022/10/07 12:35:33;;;;;;;;;;;;;;;24.78;31.05;101081.41;4941261;28;8421;-82
2022/10/07 12:38:22;;;;;;;;;;;;;;;24.44;31.96;101081.38;4959815;28;7258;-81
2022/10/07 12:41:24;;;;;;;;;;;;;;;24.15;32.34;101082.19;4954851;28;7359;-82
2022/10/07 12:44:35;;;;;;;;;;;;;;;23.85;33.13;101076.81;4940033;28;8428;-82
2022/10/07 12:47:15;;;;;;;;;;;;;;;23.66;33.45;101064.53;4934667;28;7015;-81
2022/10/07 12:49:56;;;;;;;;;;;;;;;23.53;33.45;101061.88;4942895;28;7215;-79
2022/10/07 12:52:54;;;;;;;;;;;;;;;23.46;34.13;101065.31;4955506;28;7400;-79
2022/10/07 12:55:35;;;;;;;;;;;;;;;23.39;33.89;101058.28;4958605;28;6977;-81
2022/10/07 13:01:45;;;;;;;;;;;;;;;23.31;33.85;101042.56;4957941;28;6812;-81
2022/10/07 13:04:32;;;;;;;;;;;;;;;23.28;34.83;101042.56;4954518;28;7172;-82
2022/10/07 13:07:45;;;;;;;;;;;;;;;23.21;34.55;101041.59;4957918;28;6837;-79
2022/10/07 13:10:56;;;;;;;;;;;;;;;23.14;34.79;101030.25;4923963;28;7332;-78
2022/10/07 13:14:04;;;;;;;;;;;;;;;23.07;34.93;101027.59;4941838;28;7040;-78
2022/10/07 13:16:54;;;;;;;;;;;;;;;23.03;34.79;101029.31;4940608;28;7237;-79
2022/10/07 13:19:27;;;;;;;;;;;;;;;22.99;34.86;101027.56;4939401;28;7019;-80
2022/10/07 13:22:10;;;;;;;;;;;;;;;22.98;34.62;101028.38;4934137;28;6973;-78
2022/10/07 13:24:46;;;;;;;;;;;;;;;23.00;35.41;101017.09;4940609;28;7776;-77
2022/10/07 13:27:33;;;;;;;;;;;;;;;23.02;34.92;101017.09;4941747;28;6878;-79
2022/10/07 13:30:02;;;;;;;;;;;;;;;23.02;35.09;101002.28;4939520;28;8822;-78
2022/10/07 13:32:34;;;;;;;;;;;;;;;23.02;35.16;101001.41;4935674;28;7004;-78
2022/10/07 13:35:30;;;;;;;;;;;;;;;22.99;35.22;100993.56;4937912;28;7094;-79
2022/10/07 13:37:56;;;;;;;;;;;;;;;22.99;35.35;100990.97;4922315;28;7287;-79
2022/10/07 13:40:32;;;;;;;;;;;;;;;22.97;34.95;100985.72;4942044;28;6780;-80